Time;durP1;ratioP1;P1;durP2;ratioP2;P2;SDS_P1;SDS_P2;PMS_P1;PMS_P2;Temp;Humidity;BMP_temperature;BMP_pressure;BME280_temperature;BME280_humidity;BME280_pressure;Samples;Min_cycle;Max_cycle;Signal;HPM_P1;HPM_P2
2023/02/02 00:00:29;;;;;;;8.65;2.50;;;;;;;7.48;85.46;98673.50;4139663;28;21040;-90
2023/02/02 00:02:32;;;;;;;10.98;3.08;;;;;;;7.49;85.37;98683.81;4144285;28;20203;-89
2023/02/02 00:04:36;;;;;;;7.97;3.10;;;;;;;7.47;85.87;98670.03;4160466;28;20205;-90
2023/02/02 00:06:39;;;;;;;9.48;2.60;;;;;;;7.53;85.98;98674.94;4174855;28;20209;-90
2023/02/02 00:08:42;;;;;;;10.20;3.10;;;;;;;7.54;84.82;98677.47;4176383;28;20210;-90
2023/02/02 00:10:46;;;;;;;8.98;3.85;;;;;;;7.54;85.00;98669.69;4154659;28;20222;-91
2023/02/02 00:12:49;;;;;;;11.07;2.95;;;;;;;7.56;86.43;98667.88;4157471;28;20230;-90
2023/02/02 00:14:53;;;;;;;8.57;2.97;;;;;;;7.50;85.40;98668.16;4174187;28;20271;-90
2023/02/02 00:16:57;;;;;;;8.70;5.32;;;;;;;7.48;86.68;98661.34;4175019;28;20621;-89
2023/02/02 00:19:02;;;;;;;12.00;2.67;;;;;;;7.48;86.05;98667.38;4141342;28;20209;-89
2023/02/02 00:21:08;;;;;;;10.02;3.50;;;;;;;7.48;86.55;98669.16;4157953;28;20294;-89
2023/02/02 00:23:11;;;;;;;9.68;3.28;;;;;;;7.54;86.43;98663.66;4161329;28;20229;-89
2023/02/02 00:25:17;;;;;;;9.18;2.60;;;;;;;7.52;86.63;98681.91;4159761;28;20202;-89
2023/02/02 00:27:20;;;;;;;8.15;2.60;;;;;;;7.51;86.55;98680.22;4159782;28;20265;-90
2023/02/02 00:29:26;;;;;;;9.00;3.33;;;;;;;7.48;86.88;98668.31;4159183;28;20240;-89
2023/02/02 00:31:30;;;;;;;11.55;3.05;;;;;;;7.46;85.59;98673.56;4143640;28;20215;-91
2023/02/02 00:33:33;;;;;;;8.73;3.47;;;;;;;7.47;86.50;98677.00;4160400;28;20587;-90
2023/02/02 00:35:40;;;;;;;10.82;2.90;;;;;;;7.45;87.10;98674.47;4174960;28;20592;-89
2023/02/02 00:37:44;;;;;;;9.00;3.20;;;;;;;7.42;86.69;98664.25;4158546;28;20219;-90
2023/02/02 00:39:47;;;;;;;8.07;2.90;;;;;;;7.45;85.91;98678.84;4157749;28;20669;-90
2023/02/02 00:41:50;;;;;;;11.75;2.92;;;;;;;7.44;86.75;98669.34;4174981;28;20202;-90
2023/02/02 00:46:18;;;;;;;6.72;3.33;;;;;;;7.39;86.10;98658.38;4158760;28;20212;-89
2023/02/02 00:48:24;;;;;;;9.32;2.80;;;;;;;7.41;86.88;98656.53;4160327;28;21448;-89
2023/02/02 00:50:27;;;;;;;7.03;3.22;;;;;;;7.48;86.96;98673.50;4161578;28;20273;-89
2023/02/02 00:52:30;;;;;;;8.82;3.03;;;;;;;7.48;87.14;98662.19;4175703;28;20212;-90
2023/02/02 00:54:33;;;;;;;7.03;2.85;;;;;;;7.49;86.10;98666.47;4157681;28;20886;-90
2023/02/02 00:56:37;;;;;;;10.48;2.85;;;;;;;7.47;86.86;98659.66;4174188;28;20726;-89
2023/02/02 00:58:40;;;;;;;9.30;3.15;;;;;;;7.47;87.45;98661.44;4173167;28;20247;-89
2023/02/02 01:00:43;;;;;;;6.75;2.20;;;;;;;7.39;85.91;98664.38;4144250;28;20205;-90
2023/02/02 01:02:47;;;;;;;11.98;3.47;;;;;;;7.38;86.12;98661.84;4159570;28;20586;-90
2023/02/02 01:04:51;;;;;;;9.43;3.40;;;;;;;7.36;87.03;98661.94;4143355;28;20261;-90
2023/02/02 01:06:54;;;;;;;9.33;3.10;;;;;;;7.40;87.32;98655.69;4176312;28;20748;-89
2023/02/02 01:08:57;;;;;;;10.23;3.33;;;;;;;7.41;87.55;98674.69;4160399;28;20631;-90
2023/02/02 01:11:00;;;;;;;9.52;2.50;;;;;;;7.42;87.07;98658.22;4159644;28;20540;-89
2023/02/02 01:13:03;;;;;;;13.48;3.47;;;;;;;7.44;86.79;98682.34;4141005;28;20696;-90
2023/02/02 01:15:07;;;;;;;11.07;3.47;;;;;;;7.44;86.68;98677.97;4174873;28;20603;-90
2023/02/02 01:17:11;;;;;;;7.03;2.85;;;;;;;7.41;86.86;98672.94;4172669;28;21043;-90
2023/02/02 01:19:14;;;;;;;9.57;3.08;;;;;;;7.38;87.37;98670.50;4159478;28;20217;-89
2023/02/02 01:21:19;;;;;;;9.50;2.92;;;;;;;7.41;86.79;98662.56;4143229;28;20209;-90
2023/02/02 01:23:23;;;;;;;8.32;2.83;;;;;;;7.41;87.08;98665.13;4139994;28;20215;-90
2023/02/02 01:25:26;;;;;;;10.23;4.18;;;;;;;7.36;88.02;98656.75;4159077;28;20820;-90
2023/02/02 01:27:30;;;;;;;10.07;3.13;;;;;;;7.39;88.38;98671.34;4156489;28;20243;-90
2023/02/02 01:29:34;;;;;;;11.13;3.45;;;;;;;7.37;88.55;98668.81;4143405;28;20211;-90
2023/02/02 01:31:37;;;;;;;6.10;2.45;;;;;;;7.38;89.06;98678.28;4156431;28;20219;-89
2023/02/02 01:33:40;;;;;;;9.98;2.55;;;;;;;7.38;88.40;98673.09;4142931;28;20294;-89
2023/02/02 01:35:46;;;;;;;12.60;2.90;;;;;;;7.41;88.35;98683.31;4137904;28;20586;-90
2023/02/02 01:37:50;;;;;;;8.57;3.10;;;;;;;7.40;89.27;98675.63;4176030;28;20201;-90
2023/02/02 01:39:54;;;;;;;10.93;2.92;;;;;;;7.38;88.74;98677.44;4142696;28;20248;-89
2023/02/02 01:41:57;;;;;;;6.82;3.25;;;;;;;7.42;88.78;98686.75;4157627;28;20202;-90
2023/02/02 01:44:01;;;;;;;7.15;4.00;;;;;;;7.38;88.74;98680.03;4142323;28;20240;-89
2023/02/02 01:46:04;;;;;;;10.50;3.70;;;;;;;7.43;89.10;98681.50;4143233;28;20669;-90
2023/02/02 01:48:07;;;;;;;13.35;3.45;;;;;;;7.39;90.38;98682.53;4142577;28;20199;-90
2023/02/02 01:50:12;;;;;;;13.90;3.90;;;;;;;7.36;91.25;98685.28;4140480;28;20206;-90
2023/02/02 01:52:17;;;;;;;9.43;3.80;;;;;;;7.35;90.64;98677.56;4139396;28;20752;-90
2023/02/02 01:54:25;;;;;;;12.32;3.63;;;;;;;7.30;91.87;98672.59;4171405;28;20701;-90
2023/02/02 01:56:33;;;;;;;9.30;4.13;;;;;;;7.22;92.58;98669.50;4139387;28;20229;-90
2023/02/02 01:58:38;;;;;;;11.75;3.72;;;;;;;7.23;91.45;98663.44;4144373;28;20247;-90
2023/02/02 02:00:43;;;;;;;8.90;3.92;;;;;;;7.22;91.79;98674.69;4139608;28;20290;-89
2023/02/02 02:02:49;;;;;;;18.73;3.85;;;;;;;7.22;92.07;98660.91;4156669;28;20631;-90
2023/02/02 02:04:55;;;;;;;11.10;3.40;;;;;;;7.18;93.27;98662.78;4142000;28;20348;-90
2023/02/02 02:06:59;;;;;;;6.00;3.17;;;;;;;7.21;92.92;98665.22;4156992;28;20245;-90
2023/02/02 02:09:06;;;;;;;9.77;3.40;;;;;;;7.17;93.35;98668.03;4140927;28;20717;-90
2023/02/02 02:11:10;;;;;;;13.35;4.30;;;;;;;7.13;92.79;98661.31;4171343;28;20215;-90
2023/02/02 02:13:14;;;;;;;7.80;3.75;;;;;;;7.15;93.25;98668.09;4139396;28;20225;-90
2023/02/02 02:17:57;;;;;;;11.90;3.90;;;;;;;7.13;93.03;98662.16;4141084;28;20222;-90
2023/02/02 02:28:41;;;;;;;10.32;3.10;;;;;;;7.16;92.04;98656.81;4155281;28;20266;-90
2023/02/02 02:31:14;;;;;;;10.48;3.50;;;;;;;7.23;92.00;98658.25;4172198;28;21548;-91
2023/02/02 02:33:29;;;;;;;9.95;3.50;;;;;;;7.22;91.93;98666.09;4170246;28;20683;-91
2023/02/02 02:35:36;;;;;;;15.10;4.55;;;;;;;7.19;92.53;98659.28;4157387;28;20195;-91
2023/02/02 02:37:45;;;;;;;10.60;3.67;;;;;;;7.21;91.71;98665.22;4156272;28;20327;-90
2023/02/02 02:39:51;;;;;;;11.82;3.75;;;;;;;7.25;92.33;98661.59;4155403;28;20194;-90
2023/02/02 02:41:59;;;;;;;10.13;3.55;;;;;;;7.25;91.62;98661.59;4140121;28;20246;-92
2023/02/02 02:44:06;;;;;;;9.55;4.00;;;;;;;7.21;92.27;98652.25;4139254;28;20457;-91
2023/02/02 02:46:10;;;;;;;11.02;3.72;;;;;;;7.28;92.22;98660.63;4154109;28;20211;-93
2023/02/02 02:48:13;;;;;;;8.68;3.00;;;;;;;7.28;91.40;98664.03;4139878;28;20199;-93
2023/02/02 02:50:18;;;;;;;11.52;4.18;;;;;;;7.29;92.27;98668.34;4143188;28;20292;-94
2023/02/02 02:52:21;;;;;;;10.80;4.20;;;;;;;7.31;91.77;98663.91;4153364;28;20225;-93
2023/02/02 02:54:27;;;;;;;15.70;3.80;;;;;;;7.31;91.94;98670.84;4139168;28;20199;-92
2023/02/02 02:56:33;;;;;;;13.05;4.50;;;;;;;7.33;91.68;98669.03;4136830;28;20260;-93
2023/02/02 02:58:43;;;;;;;7.53;3.67;;;;;;;7.31;92.77;98666.50;4150333;28;20207;-93
2023/02/02 03:01:04;;;;;;;13.55;4.30;;;;;;;7.35;92.48;98664.59;4141481;28;20203;-93
2023/02/02 03:03:14;;;;;;;5.95;3.33;;;;;;;7.36;92.49;98671.47;4171924;28;20233;-93
2023/02/02 03:05:29;;;;;;;7.55;3.25;;;;;;;7.33;93.21;98669.03;4145271;28;20264;-93
2023/02/02 03:07:37;;;;;;;11.27;4.03;;;;;;;7.31;92.54;98676.88;4157005;28;20205;-91
2023/02/02 03:09:42;;;;;;;14.05;3.97;;;;;;;7.25;93.92;98671.97;4158966;28;20203;-93
2023/02/02 03:11:47;;;;;;;13.75;3.60;;;;;;;7.31;93.17;98673.44;4145514;28;20706;-93
2023/02/02 03:13:50;;;;;;;16.98;3.92;;;;;;;7.24;93.39;98667.69;4146392;28;20240;-94
2023/02/02 03:15:53;;;;;;;12.43;4.18;;;;;;;7.24;93.97;98667.69;4149707;28;20197;-93
2023/02/02 03:17:57;;;;;;;14.68;4.00;;;;;;;7.23;93.27;98667.75;4139296;28;20303;-94
2023/02/02 03:20:00;;;;;;;10.25;3.58;;;;;;;7.20;94.05;98673.94;4142775;28;20199;-94
2023/02/02 03:22:06;;;;;;;16.58;4.40;;;;;;;7.23;93.94;98675.53;4144024;28;20717;-94
2023/02/02 03:24:10;;;;;;;9.30;3.60;;;;;;;7.19;93.35;98677.44;4156365;28;20216;-94
2023/02/02 03:26:13;;;;;;;10.50;4.85;;;;;;;7.21;94.63;98679.97;4174836;28;20224;-94
2023/02/02 03:28:17;;;;;;;12.88;4.95;;;;;;;7.16;93.41;98672.38;4157966;28;20228;-94
2023/02/02 03:30:22;;;;;;;13.82;4.70;;;;;;;7.19;93.49;98667.06;4156171;28;20228;-90
2023/02/02 03:32:25;;;;;;;6.30;3.83;;;;;;;7.20;93.13;98676.53;4158327;28;20203;-90
2023/02/02 03:34:31;;;;;;;10.20;4.35;;;;;;;7.19;92.98;98676.59;4141394;28;20584;-90
2023/02/02 03:36:34;;;;;;;9.10;3.88;;;;;;;7.20;92.81;98679.13;4142964;28;20711;-91
2023/02/02 03:38:38;;;;;;;9.25;3.53;;;;;;;7.18;93.25;98682.69;4141939;28;20563;-90
2023/02/02 03:40:41;;;;;;;9.95;3.60;;;;;;;7.24;94.20;98685.84;4159437;28;20202;-91
2023/02/02 03:42:45;;;;;;;12.50;4.28;;;;;;;7.25;93.52;98678.91;4157091;28;20263;-90
2023/02/02 03:44:48;;;;;;;11.75;3.88;;;;;;;7.24;93.29;98672.88;4139080;28;20296;-90
2023/02/02 03:46:53;;;;;;;8.00;3.35;;;;;;;7.26;93.47;98683.19;4140602;28;20195;-92
2023/02/02 03:48:56;;;;;;;12.65;4.25;;;;;;;7.27;92.76;98685.69;4142754;28;20211;-91
2023/02/02 03:50:59;;;;;;;10.20;4.22;;;;;;;7.25;93.39;98699.66;4153860;28;20887;-91
2023/02/02 03:53:02;;;;;;;11.93;3.60;;;;;;;7.24;92.29;98696.22;4142064;28;20668;-91
2023/02/02 03:55:07;;;;;;;14.77;4.43;;;;;;;7.24;93.31;98693.63;4156191;28;20237;-92
2023/02/02 03:57:11;;;;;;;10.05;4.13;;;;;;;7.23;93.26;98691.09;4174135;28;20218;-91
2023/02/02 03:59:14;;;;;;;12.30;4.35;;;;;;;7.22;93.31;98679.91;4146237;28;20206;-92
2023/02/02 04:01:17;;;;;;;11.38;3.97;;;;;;;7.27;92.58;98696.06;4174306;28;20261;-90
2023/02/02 04:03:20;;;;;;;13.48;4.25;;;;;;;7.26;93.30;98681.44;4152182;28;20264;-91
2023/02/02 04:05:23;;;;;;;8.70;4.03;;;;;;;7.26;92.82;98694.41;4157045;28;20806;-91
2023/02/02 04:07:27;;;;;;;9.65;3.75;;;;;;;7.29;92.84;98707.25;4140737;28;20269;-90
2023/02/02 04:09:30;;;;;;;10.85;4.05;;;;;;;7.28;92.61;98696.94;4172240;28;20210;-90
2023/02/02 04:11:34;;;;;;;11.18;3.95;;;;;;;7.29;92.97;98704.66;4158407;28;20671;-90
2023/02/02 04:13:38;;;;;;;13.05;4.35;;;;;;;7.28;93.16;98696.94;4154561;28;20274;-90
2023/02/02 04:15:41;;;;;;;12.85;4.20;;;;;;;7.33;93.86;98700.16;4140663;28;20207;-90
2023/02/02 04:17:44;;;;;;;11.25;3.60;;;;;;;7.33;92.75;98700.97;4153392;28;20232;-90
2023/02/02 04:19:47;;;;;;;9.23;3.70;;;;;;;7.38;93.45;98716.34;4175360;28;20622;-90
2023/02/02 04:21:51;;;;;;;8.80;3.95;;;;;;;7.36;92.64;98700.00;4154396;28;20267;-91
2023/02/02 04:23:54;;;;;;;9.57;3.80;;;;;;;7.34;93.42;98712.22;4159536;28;20195;-90
2023/02/02 04:25:58;;;;;;;6.38;3.50;;;;;;;7.35;93.66;98709.56;4142505;28;21067;-92
2023/02/02 04:28:02;;;;;;;11.30;4.05;;;;;;;7.34;93.17;98692.31;4172599;28;20232;-92
2023/02/02 04:30:07;;;;;;;10.43;4.35;;;;;;;7.34;92.54;98728.63;4157556;28;20270;-90
2023/02/02 04:32:11;;;;;;;9.20;3.63;;;;;;;7.31;92.59;98710.59;4156093;28;20280;-91
2023/02/02 04:34:14;;;;;;;11.75;4.03;;;;;;;7.30;92.73;98721.88;4156303;28;20214;-91
2023/02/02 04:36:17;;;;;;;11.15;4.50;;;;;;;7.34;92.51;98717.41;4155879;28;20216;-91
2023/02/02 04:38:20;;;;;;;9.38;3.28;;;;;;;7.40;92.96;98725.75;4139264;28;20229;-90
2023/02/02 04:40:24;;;;;;;14.18;4.78;;;;;;;7.40;92.97;98711.94;4155331;28;20201;-91
2023/02/02 04:42:28;;;;;;;10.52;3.75;;;;;;;7.40;92.84;98711.94;4156610;28;20684;-92
2023/02/02 04:44:32;;;;;;;14.63;5.60;;;;;;;7.38;92.70;98716.34;4172971;28;20202;-91
2023/02/02 04:46:35;;;;;;;10.18;3.85;;;;;;;7.37;92.34;98718.09;4173866;28;20213;-91
2023/02/02 04:48:39;;;;;;;7.63;3.95;;;;;;;7.38;92.75;98722.41;4158281;28;20253;-90
2023/02/02 04:50:42;;;;;;;10.68;4.25;;;;;;;7.43;92.51;98732.53;4156299;28;20205;-91
2023/02/02 04:52:46;;;;;;;12.45;4.00;;;;;;;7.39;93.29;98731.84;4178706;28;20305;-91
2023/02/02 04:54:49;;;;;;;8.50;3.90;;;;;;;7.37;92.49;98723.28;4146110;28;20203;-92
2023/02/02 04:56:52;;;;;;;13.45;4.32;;;;;;;7.41;92.89;98744.75;4152688;28;20200;-92
2023/02/02 04:58:55;;;;;;;8.60;3.78;;;;;;;7.39;92.20;98737.03;4141581;28;20222;-91
2023/02/02 05:01:00;;;;;;;8.25;3.70;;;;;;;7.38;92.05;98731.91;4177043;28;20209;-91
2023/02/02 05:03:03;;;;;;;11.00;4.43;;;;;;;7.41;92.42;98734.38;4171315;28;21095;-91
2023/02/02 05:05:09;;;;;;;11.25;4.30;;;;;;;7.41;92.39;98727.41;4159620;28;20252;-92
2023/02/02 05:07:13;;;;;;;13.00;5.00;;;;;;;7.42;92.76;98736.88;4158544;28;20724;-91
2023/02/02 05:09:16;;;;;;;11.90;4.00;;;;;;;7.43;92.18;98746.38;4141242;28;20218;-90
2023/02/02 05:11:21;;;;;;;17.27;4.55;;;;;;;7.44;92.65;98754.97;4139144;28;20239;-91
2023/02/02 05:13:24;;;;;;;9.63;3.80;;;;;;;7.48;92.21;98743.56;4155415;28;20222;-91
2023/02/02 05:15:29;;;;;;;13.82;4.30;;;;;;;7.45;91.75;98741.94;4138446;28;20207;-92
2023/02/02 05:17:34;;;;;;;9.43;3.45;;;;;;;7.43;92.32;98745.50;4140357;28;20215;-94
2023/02/02 05:19:37;;;;;;;9.32;3.70;;;;;;;7.43;92.88;98746.38;4174352;28;20727;-94
2023/02/02 05:21:40;;;;;;;17.92;4.95;;;;;;;7.47;91.52;98734.91;4157824;28;20219;-94
2023/02/02 05:23:44;;;;;;;16.55;4.15;;;;;;;7.47;92.39;98745.28;4141935;28;20210;-93
2023/02/02 05:25:53;;;;;;;11.18;4.15;;;;;;;7.46;91.89;98733.25;4155604;28;20221;-90
2023/02/02 05:27:56;;;;;;;7.90;3.88;;;;;;;7.46;91.37;98737.59;4144697;28;20290;-91
2023/02/02 05:29:59;;;;;;;10.25;3.95;;;;;;;7.44;92.29;98745.44;4152242;28;20202;-91
2023/02/02 05:32:02;;;;;;;8.52;3.53;;;;;;;7.42;92.06;98751.63;4172159;28;20666;-91
2023/02/02 05:34:10;;;;;;;10.45;4.40;;;;;;;7.41;92.85;98749.94;4140101;28;20206;-91
2023/02/02 05:36:13;;;;;;;10.43;3.88;;;;;;;7.41;91.87;98749.94;4155746;28;20221;-91
2023/02/02 05:38:17;;;;;;;10.98;3.63;;;;;;;7.44;91.81;98754.97;4156904;28;20230;-91
2023/02/02 05:40:20;;;;;;;7.05;3.63;;;;;;;7.42;92.28;98759.41;4170697;28;20205;-91
2023/02/02 05:42:23;;;;;;;11.10;4.00;;;;;;;7.44;91.26;98755.81;4140424;28;20706;-91
2023/02/02 05:44:27;;;;;;;14.93;3.90;;;;;;;7.50;92.61;98760.72;4138010;28;20706;-91
2023/02/02 05:46:30;;;;;;;9.57;4.03;;;;;;;7.48;91.70;98753.00;4142354;28;20213;-91
2023/02/02 05:48:33;;;;;;;10.38;3.75;;;;;;;7.46;91.02;98764.38;4156317;28;20217;-91
2023/02/02 05:50:38;;;;;;;10.38;3.90;;;;;;;7.45;92.09;98761.88;4153409;28;20203;-90
2023/02/02 05:52:42;;;;;;;10.60;3.30;;;;;;;7.48;92.66;98773.78;4169589;28;20199;-91
2023/02/02 05:54:46;;;;;;;12.05;3.88;;;;;;;7.46;91.19;98767.00;4155462;28;20253;-91
2023/02/02 05:56:50;;;;;;;13.02;3.70;;;;;;;7.44;91.42;98760.16;4172000;28;20205;-91
2023/02/02 05:58:53;;;;;;;9.85;4.43;;;;;;;7.44;92.53;98765.34;4153612;28;20222;-91
2023/02/02 06:00:57;;;;;;;16.52;4.13;;;;;;;7.40;92.52;98756.88;4152747;28;20209;-91
2023/02/02 06:03:00;;;;;;;13.35;4.72;;;;;;;7.41;92.08;98775.88;4139008;28;20213;-91
2023/02/02 06:05:04;;;;;;;10.82;3.70;;;;;;;7.46;92.44;98771.31;4152672;28;20244;-91
2023/02/02 06:07:08;;;;;;;11.50;4.43;;;;;;;7.47;92.22;98780.78;4172042;28;20208;-91
2023/02/02 06:09:12;;;;;;;14.32;4.68;;;;;;;7.44;92.70;98786.94;4152027;28;20655;-90
2023/02/02 06:11:17;;;;;;;18.52;4.07;;;;;;;7.42;93.86;98780.16;4141030;28;20207;-91
2023/02/02 06:13:20;;;;;;;8.20;3.97;;;;;;;7.40;92.70;98782.81;4137921;28;20273;-90
2023/02/02 06:15:23;;;;;;;11.57;3.42;;;;;;;7.39;93.68;98783.72;4150019;28;20217;-90
2023/02/02 06:17:27;;;;;;;13.38;4.40;;;;;;;7.38;93.79;98792.44;4138154;28;20293;-91
2023/02/02 06:19:30;;;;;;;10.65;4.00;;;;;;;7.37;94.40;98801.13;4138724;28;20301;-90
2023/02/02 06:21:33;;;;;;;13.25;4.68;;;;;;;7.36;94.54;98799.44;4136898;28;20211;-90
2023/02/02 06:23:42;;;;;;;9.07;3.80;;;;;;;7.40;93.54;98810.53;4152638;28;20676;-90
2023/02/02 06:25:45;;;;;;;11.38;4.00;;;;;;;7.39;93.44;98798.47;4171956;28;20236;-91
2023/02/02 06:27:49;;;;;;;9.32;4.30;;;;;;;7.44;93.53;98804.28;4169407;28;20553;-91
2023/02/02 06:29:52;;;;;;;12.73;3.90;;;;;;;7.43;93.06;98806.03;4136388;28;20256;-89
2023/02/02 06:31:55;;;;;;;12.68;4.38;;;;;;;7.48;92.90;98803.25;4150308;28;21199;-94
2023/02/02 06:34:00;;;;;;;12.00;4.10;;;;;;;7.51;92.37;98809.13;4151559;28;20216;-91
2023/02/02 06:36:06;;;;;;;12.45;3.50;;;;;;;7.52;92.47;98805.63;4156470;28;20211;-92
2023/02/02 06:38:10;;;;;;;12.13;4.55;;;;;;;7.55;92.52;98806.31;4160590;28;20303;-91
2023/02/02 06:40:16;;;;;;;13.70;4.53;;;;;;;7.58;93.08;98811.38;4172244;28;20225;-92
2023/02/02 06:42:19;;;;;;;11.38;3.70;;;;;;;7.55;92.65;98810.69;4169939;28;20236;-92
2023/02/02 06:44:24;;;;;;;9.55;4.03;;;;;;;7.52;93.74;98809.06;4141614;28;20674;-90
2023/02/02 06:46:27;;;;;;;14.23;4.30;;;;;;;7.52;93.48;98803.03;4157607;28;20206;-92
2023/02/02 06:48:31;;;;;;;11.38;3.80;;;;;;;7.51;92.39;98809.97;4159973;28;20209;-90
2023/02/02 06:50:34;;;;;;;11.38;4.82;;;;;;;7.56;92.60;98814.94;4170983;28;20304;-90
2023/02/02 06:52:37;;;;;;;11.18;3.53;;;;;;;7.60;92.23;98808.72;4162182;28;20213;-88
2023/02/02 06:54:40;;;;;;;13.18;4.20;;;;;;;7.64;92.20;98820.66;4176786;28;20198;-88
2023/02/02 06:56:45;;;;;;;10.43;4.05;;;;;;;7.62;92.24;98812.06;4170826;28;20211;-88
2023/02/02 06:58:48;;;;;;;11.63;4.38;;;;;;;7.65;92.67;98812.81;4154593;28;20209;-89
2023/02/02 07:00:51;;;;;;;9.07;5.20;;;;;;;7.61;92.24;98815.59;4134844;28;20254;-88
2023/02/02 07:02:54;;;;;;;11.82;4.10;;;;;;;7.59;91.46;98807.88;4153143;28;20198;-89
2023/02/02 07:04:58;;;;;;;10.55;4.10;;;;;;;7.62;92.94;98822.47;4168505;28;20223;-89
2023/02/02 07:07:01;;;;;;;11.43;4.60;;;;;;;7.60;92.53;98819.94;4135953;28;20232;-90
2023/02/02 07:09:04;;;;;;;8.45;3.65;;;;;;;7.63;92.20;98824.97;4146314;28;20213;-88
2023/02/02 07:11:08;;;;;;;8.98;3.75;;;;;;;7.59;91.69;98818.28;4168248;28;20216;-88
2023/02/02 07:13:19;;;;;;;11.23;4.38;;;;;;;7.58;92.18;98821.75;4172773;28;20229;-89
2023/02/02 07:15:22;;;;;;;11.98;4.22;;;;;;;7.55;91.90;98821.91;4158515;28;20219;-88
2023/02/02 07:17:26;;;;;;;17.35;4.55;;;;;;;7.62;91.76;98831.09;4142128;28;20215;-86
2023/02/02 07:19:29;;;;;;;9.95;4.18;;;;;;;7.62;91.16;98827.66;4161951;28;20691;-87
2023/02/02 07:21:34;;;;;;;18.50;4.00;;;;;;;7.64;91.90;98825.84;4159104;28;20211;-86
2023/02/02 07:23:38;;;;;;;8.07;4.22;;;;;;;7.65;91.86;98832.69;4158308;28;20196;-87
2023/02/02 07:25:41;;;;;;;11.00;3.45;;;;;;;7.66;90.99;98829.22;4177700;28;20206;-87
2023/02/02 07:27:46;;;;;;;7.28;3.70;;;;;;;7.67;91.52;98831.72;4178455;28;20987;-87
2023/02/02 07:29:51;;;;;;;12.73;4.38;;;;;;;7.66;91.87;98821.41;4177422;28;20233;-87
2023/02/02 07:31:54;;;;;;;15.13;4.47;;;;;;;7.67;92.60;98836.94;4175112;28;20696;-87
2023/02/02 07:33:57;;;;;;;9.75;3.80;;;;;;;7.66;91.19;98834.41;4176077;28;20214;-87
2023/02/02 07:36:01;;;;;;;11.05;3.85;;;;;;;7.67;91.89;98833.50;4143918;28;20714;-87
2023/02/02 07:38:04;;;;;;;10.05;3.88;;;;;;;7.70;91.73;98834.19;4176255;28;20206;-87
2023/02/02 07:40:09;;;;;;;9.80;3.72;;;;;;;7.72;92.00;98832.34;4142135;28;20231;-87
2023/02/02 07:42:12;;;;;;;15.13;4.15;;;;;;;7.74;91.31;98838.34;4155324;28;20207;-87
2023/02/02 07:44:16;;;;;;;13.50;4.30;;;;;;;7.77;90.67;98833.00;4154776;28;20214;-87
2023/02/02 07:46:21;;;;;;;14.15;4.10;;;;;;;7.75;90.25;98828.78;4141331;28;20216;-86
2023/02/02 07:48:24;;;;;;;11.77;3.75;;;;;;;7.74;90.90;98837.47;4177299;28;20202;-87
2023/02/02 07:50:29;;;;;;;14.27;4.90;;;;;;;7.76;91.01;98840.88;4153694;28;20214;-86
2023/02/02 07:52:32;;;;;;;12.50;3.88;;;;;;;7.78;91.42;98839.88;4155659;28;20230;-86
2023/02/02 07:54:35;;;;;;;10.60;4.00;;;;;;;7.78;91.42;98839.88;4176924;28;20240;-87
2023/02/02 07:56:39;;;;;;;11.52;4.35;;;;;;;7.83;91.35;98843.09;4144625;28;20261;-87
2023/02/02 07:58:43;;;;;;;14.20;4.15;;;;;;;7.82;90.41;98833.63;4158786;28;20268;-87
2023/02/02 08:00:46;;;;;;;13.18;4.00;;;;;;;7.81;91.99;98839.72;4175649;28;20271;-86
2023/02/02 08:02:51;;;;;;;12.13;4.05;;;;;;;7.82;90.60;98831.03;4159438;28;20290;-86
2023/02/02 08:04:54;;;;;;;9.70;3.75;;;;;;;7.84;91.92;98843.97;4140199;28;20216;-86
2023/02/02 08:06:57;;;;;;;8.90;3.85;;;;;;;7.82;90.15;98848.34;4144231;28;20211;-87
2023/02/02 08:09:01;;;;;;;10.98;3.90;;;;;;;7.81;90.79;98839.72;4141247;28;20250;-86
2023/02/02 08:11:05;;;;;;;7.55;3.45;;;;;;;7.86;91.10;98842.13;4144236;28;20245;-86
2023/02/02 08:13:08;;;;;;;9.00;4.13;;;;;;;7.82;90.11;98844.03;4140081;28;20227;-87
2023/02/02 08:15:12;;;;;;;7.40;4.00;;;;;;;7.70;91.87;98849.78;4171880;28;20300;-86
2023/02/02 08:17:15;;;;;;;10.18;3.60;;;;;;;7.70;91.30;98865.34;4158983;28;20739;-86
2023/02/02 08:19:19;;;;;;;9.75;4.43;;;;;;;7.72;90.93;98866.09;4144319;28;20199;-87
2023/02/02 08:21:22;;;;;;;10.90;4.40;;;;;;;7.75;91.64;98870.34;4161002;28;20267;-86
2023/02/02 08:23:25;;;;;;;8.95;3.67;;;;;;;7.75;90.83;98875.53;4154247;28;20616;-86
2023/02/02 08:25:29;;;;;;;14.77;3.70;;;;;;;7.77;91.11;98878.88;4175017;28;20252;-87
2023/02/02 08:27:32;;;;;;;12.38;4.15;;;;;;;7.75;91.80;98878.13;4156490;28;20221;-87
2023/02/02 08:29:35;;;;;;;11.25;4.15;;;;;;;7.76;91.90;98883.25;4153150;28;20213;-86
2023/02/02 08:31:40;;;;;;;12.07;4.38;;;;;;;7.79;91.95;98887.47;4149336;28;20218;-86
2023/02/02 08:33:43;;;;;;;9.82;4.20;;;;;;;7.80;90.62;98881.34;4175176;28;20825;-87
2023/02/02 08:35:48;;;;;;;13.05;5.47;;;;;;;7.77;92.00;98894.47;4141230;28;20207;-86
2023/02/02 08:37:51;;;;;;;20.67;6.22;;;;;;;7.77;90.99;98889.25;4157448;28;20234;-86
2023/02/02 08:39:54;;;;;;;12.98;5.18;;;;;;;7.76;91.02;98882.41;4175904;28;20198;-86
2023/02/02 08:41:57;;;;;;;11.88;4.78;;;;;;;7.77;90.29;98878.88;4161380;28;20659;-89
2023/02/02 08:44:00;;;;;;;13.80;5.43;;;;;;;7.76;91.07;98893.63;4144429;28;20322;-87
2023/02/02 08:46:04;;;;;;;13.90;4.68;;;;;;;7.77;92.04;98878.88;4148959;28;20646;-87
2023/02/02 08:48:08;;;;;;;14.02;7.38;;;;;;;7.79;91.47;98884.88;4154751;28;20573;-87
2023/02/02 08:50:14;;;;;;;11.00;3.83;;;;;;;7.80;91.60;98873.56;4138855;28;20700;-88
2023/02/02 08:52:18;;;;;;;6.53;4.20;;;;;;;7.82;90.09;98884.69;4143157;28;20730;-87
2023/02/02 08:54:22;;;;;;;9.60;4.45;;;;;;;7.85;90.69;98881.97;4145015;28;20262;-87
2023/02/02 08:56:24;;;;;;;9.27;4.40;;;;;;;7.82;90.97;98882.97;4175198;28;20233;-87
2023/02/02 08:58:28;;;;;;;16.35;4.45;;;;;;;7.84;91.12;98888.09;4155461;28;20213;-87
2023/02/02 09:00:31;;;;;;;11.00;4.00;;;;;;;7.84;90.82;98878.53;4174819;28;20758;-87
2023/02/02 09:02:34;;;;;;;15.57;3.92;;;;;;;7.87;90.43;98891.38;4174607;28;20650;-87
2023/02/02 09:04:37;;;;;;;8.20;4.05;;;;;;;7.92;90.99;98888.59;4173603;28;20211;-87
2023/02/02 09:06:41;;;;;;;11.80;4.30;;;;;;;7.92;90.22;98897.22;4160747;28;20559;-87
2023/02/02 09:08:46;;;;;;;10.98;4.30;;;;;;;7.95;91.30;98896.25;4144376;28;20207;-87
2023/02/02 09:10:49;;;;;;;11.85;3.80;;;;;;;7.94;91.01;98897.13;4154305;28;20207;-87
2023/02/02 09:12:52;;;;;;;13.27;4.13;;;;;;;7.90;90.26;98895.59;4174397;28;20678;-87
2023/02/02 09:14:55;;;;;;;15.15;5.70;;;;;;;7.90;90.02;98895.59;4156420;28;20220;-87
2023/02/02 09:16:58;;;;;;;8.30;4.15;;;;;;;7.92;90.51;98893.78;4142033;28;20672;-87
2023/02/02 09:19:01;;;;;;;11.73;4.85;;;;;;;7.93;90.88;98885.09;4144717;28;20635;-87
2023/02/02 09:21:06;;;;;;;10.23;4.57;;;;;;;7.96;89.97;98895.34;4157346;28;20312;-87
2023/02/02 09:23:09;;;;;;;11.30;3.90;;;;;;;7.91;91.54;98889.47;4175030;28;20201;-87
2023/02/02 09:25:14;;;;;;;7.47;4.25;;;;;;;7.94;90.25;98886.75;4158859;28;20555;-87
2023/02/02 09:27:17;;;;;;;13.63;5.18;;;;;;;7.94;89.91;98886.75;4173226;28;20240;-87
2023/02/02 09:29:20;;;;;;;10.23;4.60;;;;;;;7.94;90.78;98884.16;4173511;28;20716;-87
2023/02/02 09:31:25;;;;;;;13.90;4.55;;;;;;;7.95;89.67;98893.63;4156470;28;20210;-87
2023/02/02 09:33:28;;;;;;;9.75;5.07;;;;;;;7.96;91.40;98892.75;4177781;28;20594;-87
2023/02/02 09:35:31;;;;;;;13.70;4.72;;;;;;;7.98;91.10;98900.41;4174219;28;20242;-87
2023/02/02 09:37:34;;;;;;;10.32;4.57;;;;;;;7.97;90.64;98898.69;4158354;28;20293;-87
2023/02/02 09:39:37;;;;;;;11.75;4.65;;;;;;;7.98;89.98;98902.13;4156888;28;20292;-87
2023/02/02 09:42:13;;;;;;;11.85;5.30;;;;;;;7.98;90.84;98918.56;4143531;28;20289;-87
2023/02/02 09:44:26;;;;;;;13.52;5.43;;;;;;;8.00;90.55;98908.94;4170739;28;20681;-87
2023/02/02 09:46:38;;;;;;;13.38;5.00;;;;;;;8.06;90.47;98919.06;4150943;28;20207;-88
2023/02/02 09:48:46;;;;;;;10.93;4.65;;;;;;;8.11;91.74;98930.09;4166676;28;20248;-88
2023/02/02 09:50:53;;;;;;;14.73;4.93;;;;;;;8.14;90.61;98931.75;4156349;28;20202;-88
2023/02/02 09:52:58;;;;;;;13.23;5.47;;;;;;;8.13;91.27;98932.63;4155947;28;20203;-88
2023/02/02 09:55:04;;;;;;;14.63;6.22;;;;;;;8.12;91.35;98934.41;4138970;28;20207;-88
2023/02/02 09:57:15;;;;;;;10.95;5.20;;;;;;;8.15;90.68;98929.06;4173413;28;20211;-89
2023/02/02 09:59:21;;;;;;;10.25;4.60;;;;;;;8.12;89.80;98918.00;4151065;28;20267;-87
2023/02/02 10:01:29;;;;;;;13.30;5.32;;;;;;;8.14;91.15;98924.78;4155786;28;20222;-87